Time;durP1;ratioP1;P1;durP2;ratioP2;P2;SDS_P1;SDS_P2;PMS_P1;PMS_P2;Temp;Humidity;BMP_temperature;BMP_pressure;BME280_temperature;BME280_humidity;BME280_pressure;Samples;Min_cycle;Max_cycle;Signal;HPM_P1;HPM_P2
2022/02/06 00:02:27;;;;;;;0.60;0.60;;;7.50;99.90;;;;;;5033085;28;20124;-72
2022/02/06 00:04:53;;;;;;;0.00;0.00;;;7.60;99.90;;;;;;5033363;28;20026;-74
2022/02/06 00:07:19;;;;;;;0.00;0.00;;;7.60;99.90;;;;;;5032787;28;20017;-74
2022/02/06 00:09:46;;;;;;;0.00;0.00;;;7.60;99.90;;;;;;5032566;28;20033;-72
2022/02/06 00:12:12;;;;;;;2.17;0.63;;;7.60;99.90;;;;;;5033183;28;20547;-72
2022/02/06 00:14:38;;;;;;;0.00;0.00;;;7.70;99.90;;;;;;5032683;28;20037;-75
2022/02/06 00:17:05;;;;;;;0.00;0.00;;;7.80;99.90;;;;;;5032467;28;20067;-72
2022/02/06 00:19:31;;;;;;;0.00;0.00;;;7.80;99.90;;;;;;5032930;28;20029;-75
2022/02/06 00:21:57;;;;;;;0.00;0.00;;;7.90;99.90;;;;;;5033019;28;20022;-71
2022/02/06 00:24:36;;;;;;;0.00;0.00;;;7.90;99.90;;;;;;5033198;28;20414;-75
2022/02/06 00:27:07;;;;;;;0.00;0.00;;;8.00;99.90;;;;;;5032881;28;20543;-72
2022/02/06 00:29:44;;;;;;;2.80;0.77;;;8.10;99.90;;;;;;5032146;28;20033;-75
2022/02/06 00:32:23;;;;;;;0.00;0.00;;;8.10;99.90;;;;;;5033805;28;20017;-75
2022/02/06 00:35:19;;;;;;;0.00;0.00;;;8.20;99.90;;;;;;5033006;28;20045;-72
2022/02/06 00:43:13;;;;;;;12.18;1.55;;;8.30;99.90;;;;;;5032910;28;20083;-75
2022/02/06 00:45:39;;;;;;;0.10;0.10;;;8.30;99.90;;;;;;5031923;28;20540;-72
2022/02/06 00:48:05;;;;;;;4.20;0.70;;;8.30;99.90;;;;;;5033570;28;20030;-73
2022/02/06 00:50:33;;;;;;;0.00;0.00;;;8.30;99.90;;;;;;5032375;28;20029;-75
2022/02/06 00:53:08;;;;;;;0.05;0.05;;;8.30;99.90;;;;;;5031773;28;20018;-75
2022/02/06 00:55:34;;;;;;;0.60;0.30;;;8.30;99.90;;;;;;5034070;28;20037;-75
2022/02/06 00:58:00;;;;;;;2.28;0.98;;;8.30;99.90;;;;;;5032674;28;20025;-75
2022/02/06 01:00:26;;;;;;;0.77;0.45;;;8.30;99.90;;;;;;5032444;28;20030;-75
2022/02/06 01:02:52;;;;;;;0.00;0.00;;;8.30;99.90;;;;;;5034278;28;20105;-73
2022/02/06 01:05:18;;;;;;;0.00;0.00;;;8.30;99.90;;;;;;5032222;28;20030;-75
2022/02/06 01:07:44;;;;;;;0.00;0.00;;;8.30;99.90;;;;;;5031401;28;20027;-75
2022/02/06 01:10:11;;;;;;;0.00;0.00;;;8.20;99.90;;;;;;5032554;28;20075;-74
2022/02/06 01:12:40;;;;;;;0.00;0.00;;;8.20;99.90;;;;;;5035604;28;20049;-75
2022/02/06 01:15:12;;;;;;;0.43;0.43;;;8.20;99.90;;;;;;5036109;28;20037;-71
2022/02/06 01:17:43;;;;;;;0.20;0.20;;;8.30;99.90;;;;;;5036928;28;20492;-75
2022/02/06 01:20:32;;;;;;;0.00;0.00;;;8.30;99.90;;;;;;5035333;28;20041;-72
2022/02/06 01:23:20;;;;;;;0.00;0.00;;;8.30;99.90;;;;;;5035857;28;20022;-72
2022/02/06 01:26:03;;;;;;;0.00;0.00;;;8.30;99.90;;;;;;5037479;28;20045;-72
2022/02/06 01:28:37;;;;;;;0.00;0.00;;;8.30;99.90;;;;;;5035457;28;20116;-72
2022/02/06 01:33:37;;;;;;;0.00;0.00;;;8.30;99.90;;;;;;5035789;28;20595;-73
2022/02/06 01:39:06;;;;;;;0.00;0.00;;;8.20;99.90;;;;;;5034702;28;20038;-72
2022/02/06 01:41:37;;;;;;;0.40;0.40;;;8.20;99.90;;;;;;5035699;28;20022;-72
2022/02/06 01:44:09;;;;;;;0.00;0.00;;;8.20;99.90;;;;;;5035473;28;20065;-72
2022/02/06 02:00:54;;;;;;;0.00;0.00;;;8.00;99.90;;;;;;5035224;28;20028;-71
2022/02/06 02:09:13;;;;;;;0.00;0.00;;;8.00;99.90;;;;;;5034980;28;20067;-72
2022/02/06 02:17:00;;;;;;;0.00;0.00;;;8.20;99.90;;;;;;5034331;28;20523;-72
2022/02/06 02:27:57;;;;;;;0.00;0.00;;;8.40;99.90;;;;;;5016767;28;20084;-71
2022/02/06 02:46:22;;;;;;;0.00;0.00;;;8.30;99.90;;;;;;5037747;28;20029;-72
2022/02/06 02:48:48;;;;;;;0.77;0.75;;;8.40;99.90;;;;;;5014200;28;20037;-72
2022/02/06 02:51:14;;;;;;;0.00;0.00;;;8.40;99.90;;;;;;5014070;28;20018;-72
2022/02/06 02:53:51;;;;;;;0.00;0.00;;;8.30;99.90;;;;;;5013581;28;20108;-72
2022/02/06 02:58:53;;;;;;;0.47;0.47;;;8.30;99.90;;;;;;5014529;28;20057;-72
2022/02/06 03:03:45;;;;;;;0.00;0.00;;;8.10;99.90;;;;;;5013843;28;20546;-72
2022/02/06 03:06:10;;;;;;;0.00;0.00;;;8.00;99.90;;;;;;5012890;28;20026;-72
2022/02/06 03:08:38;;;;;;;1.85;0.98;;;8.00;99.90;;;;;;5013423;28;20033;-72
2022/02/06 03:11:08;;;;;;;0.77;0.77;;;8.00;99.90;;;;;;5014122;28;20029;-72
2022/02/06 03:13:43;;;;;;;0.00;0.00;;;8.00;99.90;;;;;;5014109;28;20030;-75
2022/02/06 03:19:17;;;;;;;0.00;0.00;;;8.20;99.90;;;;;;5014360;28;20476;-72
2022/02/06 03:21:34;;;;;;;0.90;0.60;;;8.30;99.90;;;;;;5012841;28;20038;-73
2022/02/06 03:26:47;;;;;;;0.00;0.00;;;8.50;99.90;;;;;;5013673;28;20284;-72
2022/02/06 03:29:14;;;;;;;0.00;0.00;;;8.70;99.90;;;;;;5014001;28;20030;-72
2022/02/06 03:31:40;;;;;;;0.00;0.00;;;8.70;99.90;;;;;;5013294;28;20052;-72
2022/02/06 03:34:07;;;;;;;0.93;0.52;;;8.80;99.90;;;;;;5012453;28;20026;-72
2022/02/06 03:36:32;;;;;;;2.30;0.35;;;8.90;99.90;;;;;;5013925;28;20021;-72
2022/02/06 03:38:58;;;;;;;0.00;0.00;;;8.90;99.90;;;;;;5012705;28;20453;-72
2022/02/06 03:41:26;;;;;;;0.00;0.00;;;9.00;99.90;;;;;;5013270;28;20034;-72
2022/02/06 03:46:39;;;;;;;0.10;0.10;;;9.10;99.90;;;;;;5013536;28;20061;-72
2022/02/06 03:49:15;;;;;;;0.00;0.00;;;9.10;99.90;;;;;;5032470;28;20033;-72
2022/02/06 03:51:41;;;;;;;0.85;0.55;;;9.10;99.90;;;;;;5033207;28;20421;-72
2022/02/06 03:54:10;;;;;;;0.00;0.00;;;9.20;99.90;;;;;;5032738;28;20025;-72
2022/02/06 03:56:36;;;;;;;0.70;0.70;;;9.10;99.90;;;;;;5033105;28;20017;-72
2022/02/06 03:59:03;;;;;;;0.00;0.00;;;9.20;99.90;;;;;;5033120;28;20021;-72
2022/02/06 04:01:29;;;;;;;0.00;0.00;;;9.20;99.90;;;;;;5032438;28;20021;-72
2022/02/06 04:03:55;;;;;;;0.08;0.08;;;9.20;99.90;;;;;;5033061;28;20030;-72
2022/02/06 04:06:21;;;;;;;0.00;0.00;;;9.30;99.90;;;;;;5033081;28;20419;-72
2022/02/06 04:08:47;;;;;;;0.30;0.30;;;9.30;99.90;;;;;;5030754;28;20029;-76
2022/02/06 04:11:32;;;;;;;0.35;0.35;;;9.30;99.90;;;;;;5032822;28;20025;-72
2022/02/06 04:14:21;;;;;;;0.00;0.00;;;9.30;99.90;;;;;;5032354;28;20032;-71
2022/02/06 04:16:56;;;;;;;0.00;0.00;;;9.40;99.90;;;;;;5032566;28;20025;-72
2022/02/06 04:19:25;;;;;;;0.00;0.00;;;9.30;99.90;;;;;;5032752;28;20037;-72
2022/02/06 04:21:52;;;;;;;0.00;0.00;;;9.30;99.90;;;;;;5033077;28;20018;-72
2022/02/06 04:24:18;;;;;;;0.55;0.55;;;9.30;99.90;;;;;;5031822;28;20017;-72
2022/02/06 04:26:44;;;;;;;0.05;0.05;;;9.30;99.90;;;;;;5030829;28;20022;-72
2022/02/06 04:29:10;;;;;;;0.20;0.20;;;9.30;99.90;;;;;;5013088;28;20026;-72
2022/02/06 04:31:38;;;;;;;0.40;0.10;;;9.30;99.90;;;;;;5013139;28;20050;-75
2022/02/06 04:34:05;;;;;;;0.00;0.00;;;9.30;99.90;;;;;;5012831;28;20018;-72
2022/02/06 04:36:39;;;;;;;0.00;0.00;;;9.40;99.90;;;;;;5018288;28;20024;-72
2022/02/06 04:39:29;;;;;;;0.43;0.40;;;9.40;99.90;;;;;;5032367;28;20071;-72
2022/02/06 05:14:47;;;;;;;0.00;0.00;;;9.50;99.90;;;;;;5027546;28;20441;-74
2022/02/06 05:30:12;;;;;;;0.10;0.10;;;9.30;99.90;;;;;;5036116;28;20508;-75
2022/02/06 05:32:47;;;;;;;0.00;0.00;;;9.30;99.90;;;;;;5034575;28;20029;-75
2022/02/06 05:35:13;;;;;;;0.00;0.00;;;9.30;99.90;;;;;;5034812;28;20558;-72
2022/02/06 05:37:39;;;;;;;2.30;1.35;;;9.40;99.90;;;;;;5036092;28;20029;-75
2022/02/06 05:40:05;;;;;;;0.00;0.00;;;9.40;99.90;;;;;;5035100;28;20029;-72
2022/02/06 05:42:31;;;;;;;0.00;0.00;;;9.40;99.90;;;;;;5035722;28;20048;-75
2022/02/06 05:44:57;;;;;;;1.05;0.88;;;9.40;99.90;;;;;;5035631;28;20029;-75
2022/02/06 05:47:24;;;;;;;0.10;0.10;;;9.40;99.90;;;;;;5035613;28;20029;-72
2022/02/06 05:49:50;;;;;;;0.10;0.10;;;9.40;99.90;;;;;;5035877;28;20030;-75
2022/02/06 05:52:17;;;;;;;0.00;0.00;;;9.40;99.90;;;;;;5035389;28;20075;-72
2022/02/06 05:54:43;;;;;;;0.00;0.00;;;9.40;99.90;;;;;;5035352;28;20112;-72
2022/02/06 05:57:09;;;;;;;0.00;0.00;;;9.40;99.90;;;;;;5035442;28;20108;-72
2022/02/06 05:59:34;;;;;;;0.03;0.03;;;9.40;99.90;;;;;;5034484;28;20036;-75
2022/02/06 06:02:00;;;;;;;0.00;0.00;;;9.40;99.90;;;;;;5035510;28;20476;-75
2022/02/06 06:04:26;;;;;;;0.57;0.57;;;9.40;99.90;;;;;;5035017;28;20032;-75
2022/02/06 06:06:51;;;;;;;2.92;1.23;;;9.40;99.90;;;;;;5035211;28;20101;-76
2022/02/06 06:09:17;;;;;;;0.00;0.00;;;9.40;99.90;;;;;;5034738;28;20064;-72
2022/02/06 06:11:43;;;;;;;1.40;0.45;;;9.30;99.90;;;;;;5035338;28;20112;-75
2022/02/06 06:14:08;;;;;;;0.00;0.00;;;9.30;99.90;;;;;;5036051;28;20109;-72
2022/02/06 06:16:34;;;;;;;0.08;0.08;;;9.30;99.90;;;;;;5034801;28;20101;-71
2022/02/06 06:19:02;;;;;;;0.40;0.40;;;9.40;99.90;;;;;;5034792;28;20028;-71
2022/02/06 06:21:30;;;;;;;0.25;0.25;;;9.30;99.90;;;;;;5034999;28;20440;-76
2022/02/06 06:23:56;;;;;;;0.00;0.00;;;9.40;99.90;;;;;;5034722;28;20484;-72
2022/02/06 06:26:25;;;;;;;0.05;0.05;;;9.40;99.90;;;;;;5034596;28;20107;-77
2022/02/06 06:28:50;;;;;;;0.10;0.10;;;9.40;99.90;;;;;;5034343;28;20030;-71
2022/02/06 06:31:16;;;;;;;0.22;0.22;;;9.30;99.90;;;;;;5034739;28;20079;-75
2022/02/06 06:33:42;;;;;;;0.00;0.00;;;9.30;99.90;;;;;;5034124;28;20075;-71
2022/02/06 06:36:08;;;;;;;0.00;0.00;;;9.20;99.90;;;;;;5032444;28;20392;-72
2022/02/06 06:38:34;;;;;;;28.70;1.08;;;9.20;99.90;;;;;;5034223;28;20025;-72
2022/02/06 06:41:00;;;;;;;0.00;0.00;;;9.20;99.90;;;;;;5034613;28;20553;-72
2022/02/06 06:43:26;;;;;;;0.00;0.00;;;9.20;99.90;;;;;;5034631;28;20113;-71
2022/02/06 06:45:52;;;;;;;4.10;2.08;;;9.20;99.90;;;;;;5034449;28;20389;-75
2022/02/06 06:48:17;;;;;;;0.00;0.00;;;9.10;99.90;;;;;;5033831;28;20022;-72
2022/02/06 06:50:43;;;;;;;0.00;0.00;;;9.10;99.90;;;;;;5034193;28;20033;-72
2022/02/06 06:53:11;;;;;;;0.00;0.00;;;9.10;99.90;;;;;;5034906;28;20108;-71
2022/02/06 06:55:39;;;;;;;0.00;0.00;;;9.10;99.90;;;;;;5034047;28;20036;-72
2022/02/06 06:58:28;;;;;;;0.00;0.00;;;9.20;99.90;;;;;;5034458;28;20022;-72
2022/02/06 07:03:26;;;;;;;0.00;0.00;;;9.30;99.90;;;;;;5033624;28;20044;-72
2022/02/06 07:05:52;;;;;;;0.10;0.10;;;9.30;99.90;;;;;;5034193;28;20021;-71
2022/02/06 07:08:19;;;;;;;0.00;0.00;;;9.30;99.90;;;;;;5032421;28;20400;-71
2022/02/06 07:10:46;;;;;;;1.00;0.85;;;9.40;99.90;;;;;;5033284;28;20030;-72
2022/02/06 07:13:14;;;;;;;0.10;0.10;;;9.40;99.90;;;;;;5033349;28;20037;-72
2022/02/06 07:15:41;;;;;;;0.00;0.00;;;9.40;99.90;;;;;;5033751;28;20037;-72
2022/02/06 07:18:06;;;;;;;0.28;0.25;;;9.50;99.90;;;;;;5033421;28;20064;-72
2022/02/06 07:20:33;;;;;;;14.50;1.25;;;9.50;99.90;;;;;;5034015;28;20045;-73
2022/02/06 07:23:00;;;;;;;0.00;0.00;;;9.50;99.90;;;;;;5033682;28;20030;-71
2022/02/06 07:25:28;;;;;;;0.00;0.00;;;9.60;99.90;;;;;;5033542;28;20415;-72
2022/02/06 07:27:55;;;;;;;0.00;0.00;;;9.70;99.90;;;;;;5030689;28;20036;-72
2022/02/06 07:30:21;;;;;;;0.00;0.00;;;9.70;99.90;;;;;;5013711;28;20026;-75
2022/02/06 07:32:47;;;;;;;0.05;0.05;;;9.80;99.90;;;;;;5013851;28;20100;-72
2022/02/06 07:35:13;;;;;;;0.00;0.00;;;9.80;99.90;;;;;;5012548;28;20068;-72
2022/02/06 07:37:49;;;;;;;1.60;1.50;;;9.80;99.90;;;;;;5027584;28;20542;-72
2022/02/06 07:40:15;;;;;;;0.77;0.05;;;9.80;99.90;;;;;;5033384;28;20026;-75
2022/02/06 07:42:44;;;;;;;0.10;0.10;;;9.90;99.90;;;;;;5033509;28;20025;-72
2022/02/06 07:45:11;;;;;;;1.05;0.55;;;9.90;99.90;;;;;;5032584;28;20040;-72
2022/02/06 07:47:38;;;;;;;0.30;0.30;;;9.90;99.90;;;;;;5032787;28;20025;-76
2022/02/06 07:50:06;;;;;;;0.00;0.00;;;9.90;99.90;;;;;;5033124;28;20082;-72
2022/02/06 07:52:32;;;;;;;0.00;0.00;;;9.90;99.90;;;;;;5033021;28;20156;-77
2022/02/06 07:54:58;;;;;;;1.38;0.90;;;10.00;99.90;;;;;;5033090;28;20021;-72
2022/02/06 07:57:23;;;;;;;1.08;1.00;;;10.00;99.90;;;;;;5033305;28;20029;-72
2022/02/06 07:59:51;;;;;;;0.00;0.00;;;10.10;99.90;;;;;;5033310;28;20025;-72
2022/02/06 08:02:18;;;;;;;0.00;0.00;;;10.10;99.90;;;;;;5032802;28;20026;-72
2022/02/06 08:04:46;;;;;;;0.00;0.00;;;10.20;99.90;;;;;;5034748;28;20076;-72
2022/02/06 08:07:12;;;;;;;0.00;0.00;;;10.10;99.90;;;;;;5032833;28;20456;-71
2022/02/06 08:09:49;;;;;;;0.00;0.00;;;10.20;99.90;;;;;;5033487;28;20053;-76
2022/02/06 08:12:16;;;;;;;0.00;0.00;;;10.20;99.90;;;;;;5033635;28;20120;-76
2022/02/06 08:14:52;;;;;;;0.20;0.20;;;10.20;99.90;;;;;;5033209;28;20026;-72
2022/02/06 08:17:19;;;;;;;0.00;0.00;;;10.20;99.90;;;;;;5032583;28;20113;-72
2022/02/06 08:19:46;;;;;;;0.00;0.00;;;10.30;99.90;;;;;;5032270;28;20040;-72
2022/02/06 08:22:11;;;;;;;0.28;0.28;;;10.30;99.90;;;;;;5036723;28;20527;-75
2022/02/06 08:24:37;;;;;;;0.00;0.00;;;10.30;99.90;;;;;;5036926;28;20106;-72
2022/02/06 08:27:03;;;;;;;1.17;0.52;;;10.30;99.90;;;;;;5037181;28;20078;-72
2022/02/06 08:29:29;;;;;;;2.03;0.85;;;10.30;99.90;;;;;;5019027;28;20066;-72
2022/02/06 08:31:54;;;;;;;0.00;0.00;;;10.30;99.90;;;;;;5017089;28;20113;-72
2022/02/06 08:34:20;;;;;;;0.00;0.00;;;10.30;99.90;;;;;;5017157;28;20026;-72
2022/02/06 08:36:46;;;;;;;0.80;0.70;;;10.30;99.90;;;;;;5023313;28;20041;-72
2022/02/06 08:39:11;;;;;;;0.05;0.05;;;10.30;99.90;;;;;;5035193;28;20087;-71
2022/02/06 08:41:37;;;;;;;0.85;0.52;;;10.30;99.90;;;;;;5036133;28;20489;-78
2022/02/06 08:44:04;;;;;;;0.75;0.52;;;10.30;99.90;;;;;;5036855;28;20034;-76
2022/02/06 08:46:29;;;;;;;0.00;0.00;;;10.30;99.90;;;;;;5036331;28;20029;-72
2022/02/06 08:48:55;;;;;;;0.00;0.00;;;10.40;99.90;;;;;;5035669;28;20092;-72
2022/02/06 08:51:22;;;;;;;0.03;0.03;;;10.40;99.90;;;;;;5036743;28;20018;-76
2022/02/06 08:53:48;;;;;;;20.27;3.60;;;10.40;99.90;;;;;;5036106;28;20025;-71
2022/02/06 08:56:14;;;;;;;0.00;0.00;;;10.40;99.90;;;;;;5035773;28;20032;-72
2022/02/06 08:58:39;;;;;;;0.75;0.57;;;10.40;99.90;;;;;;5036299;28;20111;-72
2022/02/06 09:01:05;;;;;;;0.00;0.00;;;10.40;99.90;;;;;;5036377;28;20021;-76
2022/02/06 09:03:31;;;;;;;0.00;0.00;;;10.50;99.90;;;;;;5038709;28;20056;-79
2022/02/06 09:05:57;;;;;;;0.95;0.20;;;10.50;99.90;;;;;;5036494;28;20076;-72
2022/02/06 09:08:25;;;;;;;0.00;0.00;;;10.50;99.90;;;;;;5035847;28;20578;-73
2022/02/06 09:10:51;;;;;;;0.65;0.65;;;10.50;99.90;;;;;;5036195;28;20037;-72
2022/02/06 09:13:18;;;;;;;0.00;0.00;;;10.60;99.90;;;;;;5036315;28;20025;-72
2022/02/06 09:15:44;;;;;;;0.45;0.45;;;10.60;99.90;;;;;;5035723;28;20060;-72
2022/02/06 09:18:09;;;;;;;0.00;0.00;;;10.60;99.90;;;;;;5035828;28;20480;-72
2022/02/06 09:20:35;;;;;;;1.73;0.43;;;10.60;99.90;;;;;;5034920;28;20055;-76
2022/02/06 09:23:02;;;;;;;0.00;0.00;;;10.60;99.90;;;;;;5035600;28;20040;-72
2022/02/06 09:25:28;;;;;;;1.63;0.38;;;10.70;99.90;;;;;;5035208;28;20068;-73
2022/02/06 09:27:54;;;;;;;1.77;1.35;;;10.60;99.90;;;;;;5031030;28;20033;-72
2022/02/06 09:30:25;;;;;;;0.00;0.00;;;10.70;99.90;;;;;;5015289;28;20384;-79
2022/02/06 09:35:17;;;;;;;0.00;0.00;;;10.80;99.90;;;;;;5016016;28;20030;-71
2022/02/06 09:37:43;;;;;;;0.00;0.00;;;10.80;99.90;;;;;;5029724;28;20114;-72
2022/02/06 09:40:12;;;;;;;0.28;0.28;;;10.90;99.90;;;;;;5035939;28;20034;-71
2022/02/06 09:42:38;;;;;;;0.00;0.00;;;10.80;99.90;;;;;;5035741;28;20040;-72
2022/02/06 09:45:05;;;;;;;0.00;0.00;;;10.80;99.90;;;;;;5035314;28;20411;-75
2022/02/06 09:47:31;;;;;;;0.00;0.00;;;10.80;99.90;;;;;;5036382;28;20021;-75
2022/02/06 09:49:58;;;;;;;1.45;0.68;;;10.80;99.90;;;;;;5036760;28;20025;-76
2022/02/06 09:52:25;;;;;;;0.00;0.00;;;10.90;99.90;;;;;;5034936;28;20370;-76
2022/02/06 09:54:56;;;;;;;0.10;0.10;;;10.90;99.90;;;;;;5035228;28;20022;-76
2022/02/06 09:57:29;;;;;;;0.10;0.10;;;11.00;99.90;;;;;;5037873;28;20029;-76
2022/02/06 09:59:56;;;;;;;0.00;0.00;;;10.90;99.90;;;;;;5034670;28;20025;-72
2022/02/06 10:02:30;;;;;;;0.47;0.47;;;11.00;99.90;;;;;;5034982;28;20034;-72
2022/02/06 10:04:57;;;;;;;0.05;0.05;;;11.00;99.90;;;;;;5034969;28;20511;-72
2022/02/06 10:07:32;;;;;;;5.28;1.25;;;11.00;99.90;;;;;;5034853;28;20021;-73
2022/02/06 10:10:04;;;;;;;0.20;0.20;;;11.00;99.90;;;;;;5035027;28;20018;-75
2022/02/06 10:12:45;;;;;;;1.77;0.65;;;11.10;99.90;;;;;;5033657;28;20579;-72
2022/02/06 10:15:15;;;;;;;0.10;0.10;;;11.10;99.90;;;;;;5034506;28;20046;-72
2022/02/06 10:17:41;;;;;;;1.13;1.02;;;11.20;99.90;;;;;;5034820;28;20029;-78
2022/02/06 10:20:19;;;;;;;0.00;0.00;;;11.20;99.90;;;;;;5035995;28;20029;-78
2022/02/06 10:23:01;;;;;;;0.00;0.00;;;11.30;99.90;;;;;;5034944;28;20423;-72
2022/02/06 10:25:26;;;;;;;0.90;0.55;;;11.30;99.90;;;;;;5034623;28;20047;-73
2022/02/06 10:30:45;;;;;;;0.00;0.00;;;11.20;99.90;;;;;;5014203;28;20033;-76
2022/02/06 10:33:15;;;;;;;0.00;0.00;;;11.10;99.90;;;;;;5014950;28;20021;-72
2022/02/06 10:35:43;;;;;;;0.20;0.20;;;11.20;99.90;;;;;;5015465;28;20117;-71
2022/02/06 10:38:14;;;;;;;0.00;0.00;;;11.20;99.90;;;;;;5032094;28;20057;-78
2022/02/06 10:40:41;;;;;;;1.10;1.00;;;11.10;99.90;;;;;;5033938;28;20026;-72
2022/02/06 10:43:11;;;;;;;0.00;0.00;;;11.10;99.90;;;;;;5033608;28;20030;-72
2022/02/06 10:45:37;;;;;;;0.00;0.00;;;11.10;99.90;;;;;;5034536;28;20030;-79
2022/02/06 10:48:04;;;;;;;0.38;0.38;;;11.00;99.90;;;;;;5034307;28;20454;-72
2022/02/06 10:50:31;;;;;;;0.10;0.10;;;11.10;99.90;;;;;;5033996;28;20074;-78
2022/02/06 10:53:14;;;;;;;0.10;0.10;;;11.00;99.90;;;;;;5033926;28;20390;-72
2022/02/06 10:56:01;;;;;;;0.00;0.00;;;11.10;99.90;;;;;;5034213;28;20021;-72
2022/02/06 10:58:35;;;;;;;0.52;0.43;;;11.00;99.90;;;;;;5034279;28;20570;-76
2022/02/06 11:01:19;;;;;;;0.93;0.82;;;11.00;99.90;;;;;;5034209;28;20481;-76
2022/02/06 11:03:49;;;;;;;1.75;0.98;;;11.10;99.90;;;;;;5032834;28;20033;-72
2022/02/06 11:06:42;;;;;;;0.22;0.22;;;11.10;99.90;;;;;;5034028;28;20427;-72
2022/02/06 11:09:27;;;;;;;0.70;0.70;;;11.10;99.90;;;;;;5033456;28;20021;-76
2022/02/06 11:12:01;;;;;;;0.52;0.50;;;11.20;99.90;;;;;;5034238;28;20037;-73
2022/02/06 11:14:30;;;;;;;0.25;0.25;;;11.20;99.90;;;;;;5033313;28;20439;-77
2022/02/06 11:16:57;;;;;;;1.35;1.25;;;11.20;99.90;;;;;;5033610;28;20021;-72
2022/02/06 11:19:23;;;;;;;0.73;0.73;;;11.20;99.90;;;;;;5033630;28;20108;-78
2022/02/06 11:22:12;;;;;;;0.10;0.10;;;11.20;99.90;;;;;;5033901;28;20490;-72
2022/02/06 11:24:39;;;;;;;0.08;0.08;;;11.20;99.90;;;;;;5033404;28;20049;-76
2022/02/06 11:27:06;;;;;;;1.30;1.20;;;11.20;99.90;;;;;;5033709;28;20053;-72
2022/02/06 11:29:33;;;;;;;0.38;0.38;;;11.20;99.90;;;;;;5016487;28;20026;-71
2022/02/06 11:31:58;;;;;;;0.68;0.68;;;11.20;99.90;;;;;;5013591;28;20068;-72
2022/02/06 11:34:25;;;;;;;0.32;0.32;;;11.30;99.90;;;;;;5014025;28;20104;-72
2022/02/06 11:45:32;;;;;;;2.75;0.75;;;11.50;99.90;;;;;;5033775;28;20099;-73
2022/02/06 11:48:04;;;;;;;0.00;0.00;;;11.60;99.90;;;;;;5032220;28;20040;-72
2022/02/06 11:50:32;;;;;;;0.55;0.55;;;11.60;99.90;;;;;;5033487;28;20183;-72
2022/02/06 11:53:00;;;;;;;0.60;0.60;;;11.50;99.90;;;;;;5032376;28;20010;-77
2022/02/06 11:55:32;;;;;;;1.75;0.55;;;11.50;99.90;;;;;;5035359;28;20491;-75
2022/02/06 11:58:31;;;;;;;21.67;0.77;;;11.50;99.90;;;;;;5035994;28;20028;-72
2022/02/06 12:01:06;;;;;;;0.10;0.10;;;11.40;99.90;;;;;;5033083;28;20048;-75
2022/02/06 12:03:47;;;;;;;0.10;0.10;;;11.40;99.90;;;;;;5033248;28;20022;-73
2022/02/06 12:06:13;;;;;;;0.40;0.40;;;11.30;99.90;;;;;;5033077;28;20497;-76
2022/02/06 12:09:04;;;;;;;0.93;0.47;;;11.20;99.90;;;;;;5032624;28;20032;-72
2022/02/06 12:11:34;;;;;;;0.05;0.05;;;11.30;99.90;;;;;;5033065;28;20076;-72
2022/02/06 12:14:23;;;;;;;2.50;0.68;;;11.30;99.90;;;;;;5033141;28;20037;-72
2022/02/06 12:20:14;;;;;;;0.28;0.28;;;11.30;99.90;;;;;;5032209;28;20044;-72
2022/02/06 12:22:46;;;;;;;3.40;0.35;;;11.40;99.90;;;;;;5032720;28;20056;-71
2022/02/06 12:25:21;;;;;;;0.00;0.00;;;11.30;99.90;;;;;;5032195;28;20077;-72
2022/02/06 12:27:51;;;;;;;0.10;0.10;;;11.40;99.90;;;;;;5032723;28;20038;-76
2022/02/06 12:30:24;;;;;;;0.00;0.00;;;11.40;99.90;;;;;;5032902;28;20026;-77
2022/02/06 12:32:50;;;;;;;0.00;0.00;;;11.50;99.90;;;;;;5032980;28;20040;-72
2022/02/06 12:38:01;;;;;;;0.00;0.00;;;11.60;99.90;;;;;;5031734;28;20049;-78
2022/02/06 12:40:28;;;;;;;0.40;0.40;;;11.70;99.90;;;;;;5032730;28;20388;-78
2022/02/06 12:43:02;;;;;;;0.00;0.00;;;11.60;99.90;;;;;;5032852;28;20065;-72
2022/02/06 12:45:30;;;;;;;0.10;0.10;;;11.60;99.90;;;;;;5032834;28;20048;-72
2022/02/06 12:48:01;;;;;;;1.30;0.85;;;11.60;99.90;;;;;;5032427;28;20053;-72
2022/02/06 12:50:31;;;;;;;0.00;0.00;;;11.50;99.90;;;;;;5032235;28;20030;-80
2022/02/06 12:52:58;;;;;;;0.45;0.45;;;11.50;99.90;;;;;;5030726;28;20397;-75
2022/02/06 12:55:31;;;;;;;0.00;0.00;;;11.60;99.90;;;;;;5033612;28;20026;-77
2022/02/06 12:57:58;;;;;;;0.32;0.22;;;11.60;99.90;;;;;;5032909;28;20045;-75
2022/02/06 13:00:46;;;;;;;3.15;1.83;;;11.70;99.90;;;;;;5032272;28;20396;-72
2022/02/06 13:03:24;;;;;;;0.00;0.00;;;11.80;99.90;;;;;;5034107;28;20041;-75
2022/02/06 13:05:52;;;;;;;0.30;0.30;;;11.80;99.90;;;;;;5032619;28;20093;-76
2022/02/06 13:08:18;;;;;;;1.27;0.95;;;11.80;99.90;;;;;;5035830;28;20511;-73
2022/02/06 13:11:01;;;;;;;0.32;0.32;;;11.80;99.90;;;;;;5037652;28;20029;-72
2022/02/06 13:13:38;;;;;;;;;;;11.70;99.90;;;;;;5036008;28;20109;-78
2022/02/06 13:16:19;;;;;;;0.00;0.00;;;11.80;99.90;;;;;;5036123;28;19912;-72
2022/02/06 13:26:44;;;;;;;0.00;0.00;;;12.00;99.90;;;;;;5035697;28;20059;-72
2022/02/06 13:34:54;;;;;;;0.52;0.38;;;11.90;99.90;;;;;;5015889;28;20032;-76
2022/02/06 13:37:30;;;;;;;1.42;1.33;;;11.80;99.90;;;;;;5026451;28;20029;-72
2022/02/06 13:40:11;;;;;;;0.00;0.00;;;11.70;99.90;;;;;;5035233;28;20033;-79
2022/02/06 13:42:40;;;;;;;0.00;0.00;;;11.80;99.90;;;;;;5035712;28;20083;-72
2022/02/06 13:45:13;;;;;;;0.22;0.22;;;11.70;99.90;;;;;;5036604;28;20036;-72
2022/02/06 13:47:40;;;;;;;0.45;0.45;;;11.60;99.90;;;;;;5035318;28;20025;-72
2022/02/06 13:50:10;;;;;;;1.67;1.55;;;11.50;99.90;;;;;;5034863;28;20045;-72
2022/02/06 13:52:44;;;;;;;0.10;0.10;;;11.50;99.90;;;;;;5033862;28;20109;-72
2022/02/06 13:55:12;;;;;;;0.00;0.00;;;11.50;99.90;;;;;;5035532;28;20104;-72
2022/02/06 13:57:39;;;;;;;2.50;1.08;;;11.60;99.90;;;;;;5035487;28;20373;-72
2022/02/06 14:00:10;;;;;;;0.15;0.15;;;11.60;99.90;;;;;;5035314;28;20480;-75
2022/02/06 14:02:37;;;;;;;0.35;0.35;;;11.60;99.90;;;;;;5035091;28;20378;-72
2022/02/06 14:05:09;;;;;;;0.00;0.00;;;11.40;99.90;;;;;;5035495;28;20558;-72
2022/02/06 14:07:35;;;;;;;1.85;0.63;;;11.40;99.90;;;;;;5034254;28;20124;-72
2022/02/06 14:10:15;;;;;;;0.00;0.00;;;11.40;99.90;;;;;;5034894;28;20401;-73
2022/02/06 14:12:53;;;;;;;0.55;0.55;;;11.40;99.90;;;;;;5035453;28;20042;-72
2022/02/06 14:15:28;;;;;;;0.30;0.30;;;11.40;99.90;;;;;;5035847;28;20017;-75
2022/02/06 14:17:56;;;;;;;10.40;2.42;;;11.50;99.90;;;;;;5033382;28;20017;-72
2022/02/06 14:20:25;;;;;;;0.05;0.05;;;11.50;99.90;;;;;;5033799;28;20045;-76
2022/02/06 14:22:57;;;;;;;0.10;0.10;;;11.50;99.90;;;;;;5034776;28;20404;-72
2022/02/06 14:25:34;;;;;;;0.22;0.22;;;11.60;99.90;;;;;;5034675;28;20049;-72
2022/02/06 14:28:26;;;;;;;0.10;0.10;;;11.70;99.90;;;;;;5030291;28;20435;-79
2022/02/06 14:30:53;;;;;;;0.00;0.00;;;11.80;99.90;;;;;;5016296;28;20002;-75
2022/02/06 14:33:28;;;;;;;0.17;0.17;;;11.90;99.90;;;;;;5014696;28;20022;-72
2022/02/06 14:36:05;;;;;;;1.27;0.38;;;11.90;99.90;;;;;;5013954;28;20033;-72
2022/02/06 14:38:37;;;;;;;1.00;0.93;;;12.00;99.90;;;;;;5014428;28;20045;-72
2022/02/06 14:44:00;;;;;;;1.65;1.08;;;11.90;99.90;;;;;;5014371;28;20308;-73
2022/02/06 14:46:30;;;;;;;0.00;0.00;;;11.80;99.90;;;;;;5015733;28;20041;-75
2022/02/06 14:48:57;;;;;;;1.10;1.00;;;11.80;99.90;;;;;;5033496;28;20037;-72
2022/02/06 14:51:25;;;;;;;0.00;0.00;;;11.80;99.90;;;;;;5033678;28;20108;-73
2022/02/06 14:53:58;;;;;;;0.08;0.08;;;11.80;99.90;;;;;;5033822;28;20029;-74
2022/02/06 14:56:35;;;;;;;0.50;0.50;;;11.70;99.90;;;;;;5035892;28;20441;-73
2022/02/06 14:59:02;;;;;;;1.77;0.95;;;11.70;99.90;;;;;;5034304;28;20049;-76
2022/02/06 15:01:29;;;;;;;2.03;1.85;;;11.70;99.90;;;;;;5034202;28;20018;-71
2022/02/06 15:03:54;;;;;;;6.38;2.92;;;11.60;99.90;;;;;;5034100;28;20029;-72
2022/02/06 15:06:20;;;;;;;0.05;0.05;;;11.60;99.90;;;;;;5034082;28;20393;-72
2022/02/06 15:08:46;;;;;;;3.20;0.93;;;11.60;99.90;;;;;;5033491;28;20092;-71
2022/02/06 15:11:11;;;;;;;1.10;1.10;;;11.50;99.90;;;;;;5034109;28;20538;-73
2022/02/06 15:13:37;;;;;;;0.90;0.52;;;11.40;99.90;;;;;;5032862;28;20036;-72
2022/02/06 15:16:09;;;;;;;0.65;0.60;;;11.40;99.90;;;;;;5033298;28;20028;-74
2022/02/06 15:21:00;;;;;;;1.02;0.98;;;11.40;99.90;;;;;;5034019;28;20029;-72
2022/02/06 15:23:26;;;;;;;0.10;0.10;;;11.30;99.90;;;;;;5034619;28;20037;-76
2022/02/06 15:25:54;;;;;;;0.45;0.30;;;11.30;99.90;;;;;;5033584;28;20055;-72
2022/02/06 15:28:21;;;;;;;0.10;0.10;;;11.30;99.90;;;;;;5026027;28;20026;-77
2022/02/06 15:30:47;;;;;;;4.65;2.25;;;11.30;99.90;;;;;;5013312;28;20030;-71
2022/02/06 15:33:13;;;;;;;3.40;1.05;;;11.30;99.90;;;;;;5014028;28;20547;-80
2022/02/06 15:35:40;;;;;;;0.82;0.82;;;11.30;99.90;;;;;;5013319;28;20022;-78
2022/02/06 15:38:07;;;;;;;0.22;0.22;;;11.30;99.90;;;;;;5031661;28;20025;-72
2022/02/06 15:40:35;;;;;;;0.17;0.17;;;11.20;99.90;;;;;;5032877;28;20428;-73
2022/02/06 15:43:01;;;;;;;5.00;2.53;;;11.20;99.90;;;;;;5033550;28;20109;-72
2022/02/06 15:45:27;;;;;;;0.00;0.00;;;11.20;99.90;;;;;;5032258;28;20033;-80